Time;durP1;ratioP1;P1;durP2;ratioP2;P2;SDS_P1;SDS_P2;PMS_P1;PMS_P2;Temp;Humidity;BMP_temperature;BMP_pressure;BME280_temperature;BME280_humidity;BME280_pressure;Samples;Min_cycle;Max_cycle;Signal;HPM_P1;HPM_P2
2021/05/08 00:02:15;;;;;;;1999.90;999.90;;;;;;;12.92;72.06;95224.53;5070986;28;20204;-64
2021/05/08 00:04:42;;;;;;;1999.90;999.90;;;;;;;12.85;72.59;95234.69;5071027;28;20196;-65
2021/05/08 00:07:09;;;;;;;1999.90;999.90;;;;;;;12.87;72.77;95223.94;5070509;28;20240;-66
2021/05/08 00:09:35;;;;;;;1999.90;999.90;;;;;;;12.91;71.80;95235.28;5071078;28;20200;-65
2021/05/08 00:12:03;;;;;;;1999.90;999.90;;;;;;;12.88;71.58;95241.91;5070797;28;20196;-65
2021/05/08 00:14:29;;;;;;;1999.90;999.90;;;;;;;12.94;71.08;95245.88;5070184;28;20206;-65
2021/05/08 00:16:58;;;;;;;1999.90;999.90;;;;;;;12.73;71.71;95250.25;5070821;28;20304;-64
2021/05/08 00:19:24;;;;;;;1999.90;999.90;;;;;;;12.60;72.48;95259.03;5070794;28;20246;-65
2021/05/08 00:21:51;;;;;;;1999.90;999.90;;;;;;;12.48;72.52;95264.88;5070842;28;20192;-64
2021/05/08 00:24:18;;;;;;;1999.90;999.90;;;;;;;12.44;72.61;95269.19;5070398;28;20675;-64
2021/05/08 00:26:45;;;;;;;1999.90;999.90;;;;;;;12.35;73.76;95265.06;5070323;28;20410;-65
2021/05/08 00:29:12;;;;;;;1999.90;999.90;;;;;;;12.25;73.63;95266.16;5070428;28;20713;-64
2021/05/08 00:31:39;;;;;;;1999.90;999.90;;;;;;;12.31;73.50;95280.53;5070421;28;20671;-64
2021/05/08 00:34:07;;;;;;;1999.90;999.90;;;;;;;12.29;72.39;95282.69;5070509;28;20249;-65
2021/05/08 00:36:34;;;;;;;1999.90;999.90;;;;;;;12.27;72.77;95281.47;5070318;28;20587;-64
2021/05/08 00:39:02;;;;;;;1999.90;999.90;;;;;;;12.22;72.95;95292.03;5070296;28;20196;-64
2021/05/08 00:41:29;;;;;;;1999.90;999.90;;;;;;;12.07;73.62;95290.66;5070422;28;20208;-64
2021/05/08 00:43:56;;;;;;;1999.90;999.90;;;;;;;11.99;73.67;95294.81;5070378;28;20234;-64
2021/05/08 00:46:23;;;;;;;1999.90;999.90;;;;;;;12.03;73.04;95298.34;5070041;28;20224;-64
2021/05/08 00:48:51;;;;;;;1999.90;999.90;;;;;;;12.10;72.87;95295.28;5070387;28;20189;-64
2021/05/08 00:51:19;;;;;;;1999.90;999.90;;;;;;;12.15;73.25;95308.16;5070117;28;20743;-65
2021/05/08 00:53:46;;;;;;;1999.90;999.90;;;;;;;12.20;73.63;95317.66;5070151;28;20283;-65
2021/05/08 00:56:13;;;;;;;1999.90;999.90;;;;;;;12.11;74.55;95327.28;5070025;28;20227;-64
2021/05/08 00:58:41;;;;;;;1999.90;999.90;;;;;;;12.08;76.61;95324.22;5070015;28;20203;-63
2021/05/08 01:01:08;;;;;;;1999.90;999.90;;;;;;;12.05;78.76;95334.50;5069964;28;20196;-65
2021/05/08 01:03:35;;;;;;;1999.90;999.90;;;;;;;12.10;79.30;95339.56;5070236;28;20201;-64
2021/05/08 01:06:02;;;;;;;1999.90;999.90;;;;;;;12.23;80.46;95345.69;5069604;28;20678;-64
2021/05/08 01:08:31;;;;;;;1999.90;999.90;;;;;;;12.31;84.64;95353.50;5069938;28;20283;-66
2021/05/08 01:10:58;;;;;;;1999.90;999.90;;;;;;;12.58;86.81;95362.06;5069980;28;20789;-65
2021/05/08 01:13:25;;;;;;;1999.90;999.90;;;;;;;12.71;86.82;95367.09;5069838;28;20284;-64
2021/05/08 01:15:51;;;;;;;1999.90;999.90;;;;;;;12.80;87.10;95370.47;5069839;28;20208;-65
2021/05/08 01:18:18;;;;;;;1999.90;999.90;;;;;;;12.81;87.68;95384.25;5069927;28;20560;-64
2021/05/08 01:20:46;;;;;;;1999.90;999.90;;;;;;;12.86;88.10;95381.50;5069897;28;20204;-64
2021/05/08 01:23:14;;;;;;;1999.90;999.90;;;;;;;12.84;88.56;95391.50;5069838;28;20226;-63
2021/05/08 01:25:40;;;;;;;1999.90;999.90;;;;;;;12.89;88.36;95399.91;5070006;28;20292;-63
2021/05/08 01:28:08;;;;;;;1999.90;999.90;;;;;;;12.97;87.89;95406.19;5072422;28;20196;-65
2021/05/08 01:30:36;;;;;;;1999.90;999.90;;;;;;;12.91;87.69;95410.78;5074127;28;20285;-65
2021/05/08 01:33:04;;;;;;;1999.90;999.90;;;;;;;12.99;87.74;95413.72;5074103;28;20228;-65
2021/05/08 01:35:31;;;;;;;1999.90;999.90;;;;;;;12.92;87.88;95420.16;5073690;28;20192;-65
2021/05/08 01:37:59;;;;;;;1999.90;999.90;;;;;;;12.90;87.69;95416.34;5074042;28;20215;-65
2021/05/08 01:40:29;;;;;;;1999.90;999.90;;;;;;;12.90;88.00;95418.94;5074034;28;20549;-64
2021/05/08 01:42:56;;;;;;;1999.90;999.90;;;;;;;12.89;87.64;95428.59;5073542;28;20196;-65
2021/05/08 01:45:24;;;;;;;1999.90;999.90;;;;;;;12.81;87.99;95426.75;5073560;28;20228;-64
2021/05/08 01:47:52;;;;;;;1999.90;999.90;;;;;;;12.70;88.98;95430.75;5073442;28;20230;-66
2021/05/08 01:50:20;;;;;;;1999.90;999.90;;;;;;;12.66;89.14;95426.47;5073275;28;20189;-65
2021/05/08 01:52:47;;;;;;;1999.90;999.90;;;;;;;12.48;89.60;95421.25;5073322;28;20188;-67
2021/05/08 01:55:17;;;;;;;1999.90;999.90;;;;;;;12.51;89.73;95425.84;5073367;28;20316;-66
2021/05/08 01:57:46;;;;;;;1999.90;999.90;;;;;;;12.48;89.52;95436.13;5073247;28;20199;-66
2021/05/08 02:00:17;;;;;;;1999.90;999.90;;;;;;;12.40;89.82;95429.81;5073299;28;20205;-65
2021/05/08 02:02:44;;;;;;;1999.90;999.90;;;;;;;12.36;89.91;95434.13;5073176;28;20189;-66
2021/05/08 02:05:11;;;;;;;1999.90;999.90;;;;;;;12.22;90.72;95440.53;5072966;28;20254;-66
2021/05/08 02:07:38;;;;;;;1999.90;999.90;;;;;;;12.03;91.10;95449.41;5073194;28;20236;-65
2021/05/08 02:10:07;;;;;;;1999.90;999.90;;;;;;;11.99;91.31;95448.47;5073108;28;20203;-65
2021/05/08 02:12:37;;;;;;;1999.90;999.90;;;;;;;11.89;91.67;95451.34;5072931;28;20196;-66
2021/05/08 02:15:07;;;;;;;1999.90;999.90;;;;;;;11.90;90.68;95458.09;5072940;28;20227;-64
2021/05/08 02:17:34;;;;;;;1999.90;999.90;;;;;;;11.89;90.50;95466.22;5072817;28;20196;-65
2021/05/08 02:20:01;;;;;;;1999.90;999.90;;;;;;;11.84;90.15;95469.72;5073260;28;20295;-64
2021/05/08 02:22:28;;;;;;;1999.90;999.90;;;;;;;11.84;89.88;95489.78;5072948;28;20192;-64
2021/05/08 02:24:54;;;;;;;1999.90;999.90;;;;;;;11.83;88.89;95488.22;5072904;28;20721;-65
2021/05/08 02:27:21;;;;;;;1999.90;999.90;;;;;;;11.69;89.14;95493.50;5072811;28;20281;-64
2021/05/08 02:29:48;;;;;;;1999.90;999.90;;;;;;;11.77;88.59;95503.22;5072732;28;20201;-63
2021/05/08 02:32:16;;;;;;;1999.90;999.90;;;;;;;11.73;88.93;95502.28;5073052;28;20231;-66
2021/05/08 02:34:42;;;;;;;1999.90;999.90;;;;;;;11.66;88.75;95509.72;5073127;28;20196;-66
2021/05/08 02:37:09;;;;;;;1999.90;999.90;;;;;;;11.72;88.58;95511.13;5072861;28;20204;-66
2021/05/08 02:39:36;;;;;;;1999.90;999.90;;;;;;;11.62;88.74;95514.75;5071920;28;20197;-66
2021/05/08 02:42:04;;;;;;;1999.90;999.90;;;;;;;11.70;88.61;95515.88;5072383;28;20283;-65
2021/05/08 02:44:31;;;;;;;1999.90;999.90;;;;;;;11.50;88.98;95516.38;5072369;28;20193;-65
2021/05/08 02:46:58;;;;;;;1999.90;999.90;;;;;;;11.49;89.47;95520.81;5072408;28;20228;-66
2021/05/08 02:49:26;;;;;;;1999.90;999.90;;;;;;;11.57;88.42;95527.13;5072360;28;20199;-65
2021/05/08 02:51:54;;;;;;;1999.90;999.90;;;;;;;11.36;87.59;95531.28;5072757;28;20204;-65
2021/05/08 02:54:20;;;;;;;1999.90;999.90;;;;;;;11.24;88.18;95542.25;5072639;28;20227;-65
2021/05/08 02:56:47;;;;;;;1999.90;999.90;;;;;;;11.28;87.68;95548.38;5072231;28;20287;-65
2021/05/08 02:59:14;;;;;;;1999.90;999.90;;;;;;;11.13;87.71;95557.28;5072158;28;20208;-66
2021/05/08 03:01:40;;;;;;;1999.90;999.90;;;;;;;11.05;88.55;95555.41;5072373;28;20200;-66
2021/05/08 03:04:08;;;;;;;1999.90;999.90;;;;;;;10.95;88.28;95560.06;5072203;28;20196;-65
2021/05/08 03:06:35;;;;;;;1999.90;999.90;;;;;;;10.90;88.87;95555.75;5072012;28;20232;-67
2021/05/08 03:09:02;;;;;;;1999.90;999.90;;;;;;;10.92;88.90;95563.22;5072630;28;20192;-66
2021/05/08 03:11:29;;;;;;;1999.90;999.90;;;;;;;10.88;89.21;95570.09;5072010;28;20255;-66
2021/05/08 03:13:56;;;;;;;1999.90;999.90;;;;;;;10.90;88.56;95584.34;5072287;28;20223;-65
2021/05/08 03:16:22;;;;;;;1999.90;999.90;;;;;;;11.00;88.23;95586.72;5072084;28;20216;-65
2021/05/08 03:18:49;;;;;;;1999.90;999.90;;;;;;;11.01;87.74;95584.91;5072186;28;20279;-66
2021/05/08 03:21:16;;;;;;;1999.90;999.90;;;;;;;11.01;87.82;95580.44;5072184;28;20222;-65
2021/05/08 03:23:44;;;;;;;1999.90;999.90;;;;;;;10.98;87.56;95586.25;5071899;28;20210;-66
2021/05/08 03:26:11;;;;;;;1999.90;999.90;;;;;;;10.89;88.15;95602.81;5071846;28;20310;-67
2021/05/08 03:28:38;;;;;;;1999.90;999.90;;;;;;;10.98;87.85;95611.47;5071457;28;20197;-65
2021/05/08 03:31:04;;;;;;;1999.90;999.90;;;;;;;10.86;87.39;95621.63;5071694;28;20609;-66
2021/05/08 03:33:31;;;;;;;1999.90;999.90;;;;;;;10.90;87.21;95638.94;5071623;28;20200;-64
2021/05/08 03:35:58;;;;;;;1999.90;999.90;;;;;;;10.83;88.43;95635.19;5071615;28;20201;-65
2021/05/08 03:38:25;;;;;;;1999.90;999.90;;;;;;;10.98;87.72;95651.25;5071512;28;20204;-66
2021/05/08 03:40:53;;;;;;;1999.90;999.90;;;;;;;10.79;87.88;95646.16;5071705;28;20249;-66
2021/05/08 03:43:19;;;;;;;1999.90;999.90;;;;;;;10.69;88.96;95653.38;5071556;28;20192;-66
2021/05/08 03:45:49;;;;;;;1999.90;999.90;;;;;;;10.77;88.78;95657.91;5071349;28;20231;-66
2021/05/08 03:48:16;;;;;;;1999.90;999.90;;;;;;;10.83;88.80;95663.78;5071401;28;20287;-66
2021/05/08 03:50:42;;;;;;;1999.90;999.90;;;;;;;10.90;88.00;95667.53;5070287;28;20202;-65
2021/05/08 03:53:09;;;;;;;1999.90;999.90;;;;;;;10.82;88.99;95680.44;5071163;28;20193;-66
2021/05/08 03:55:38;;;;;;;1999.90;999.90;;;;;;;10.94;88.36;95678.13;5071244;28;20224;-65
2021/05/08 03:58:05;;;;;;;1999.90;999.90;;;;;;;11.05;87.59;95682.06;5071229;28;20706;-66
2021/05/08 04:00:32;;;;;;;1999.90;999.90;;;;;;;11.11;87.40;95681.66;5071164;28;20196;-66
2021/05/08 04:03:00;;;;;;;1999.90;999.90;;;;;;;11.10;87.29;95692.38;5070906;28;20275;-66
2021/05/08 04:05:29;;;;;;;1999.90;999.90;;;;;;;11.14;86.88;95696.69;5070308;28;20224;-66
2021/05/08 04:07:56;;;;;;;1999.90;999.90;;;;;;;11.22;85.73;95708.22;5070574;28;20320;-66
2021/05/08 04:10:22;;;;;;;1999.90;999.90;;;;;;;11.17;85.66;95703.91;5070790;28;20200;-67
2021/05/08 04:12:49;;;;;;;1999.90;999.90;;;;;;;11.07;85.96;95705.94;5070638;28;20970;-66
2021/05/08 04:15:17;;;;;;;1999.90;999.90;;;;;;;11.28;85.12;95706.28;5071001;28;20200;-66
2021/05/08 04:17:44;;;;;;;1999.90;999.90;;;;;;;11.29;84.23;95707.84;5070588;28;20208;-67
2021/05/08 04:20:12;;;;;;;1999.90;999.90;;;;;;;11.23;84.37;95707.94;5070633;28;20200;-66
2021/05/08 04:22:39;;;;;;;1999.90;999.90;;;;;;;11.22;83.64;95718.63;5070644;28;20679;-66
2021/05/08 04:25:06;;;;;;;1999.90;999.90;;;;;;;11.31;83.73;95722.09;5070725;28;20196;-67
2021/05/08 04:27:35;;;;;;;1999.90;999.90;;;;;;;11.26;83.83;95726.66;5070429;28;20280;-66
2021/05/08 04:30:06;;;;;;;1999.90;999.90;;;;;;;11.25;82.73;95722.50;5070379;28;20189;-66
2021/05/08 04:32:37;;;;;;;1999.90;999.90;;;;;;;11.36;83.01;95735.00;5070675;28;20196;-66
2021/05/08 04:35:04;;;;;;;1999.90;999.90;;;;;;;11.44;81.98;95738.75;5070496;28;20199;-65
2021/05/08 04:37:31;;;;;;;1999.90;999.90;;;;;;;11.51;81.15;95746.91;5070400;28;20209;-66
2021/05/08 04:39:58;;;;;;;1999.90;999.90;;;;;;;11.52;80.91;95751.84;5070560;28;20235;-66
2021/05/08 04:42:25;;;;;;;1999.90;999.90;;;;;;;11.48;81.01;95755.31;5070478;28;20196;-65
2021/05/08 04:44:55;;;;;;;1999.90;999.90;;;;;;;11.33;82.64;95766.03;5070492;28;20682;-66
2021/05/08 04:47:21;;;;;;;1999.90;999.90;;;;;;;11.54;81.03;95759.38;5070007;28;20614;-66
2021/05/08 04:49:51;;;;;;;1999.90;999.90;;;;;;;11.38;80.10;95763.34;5070276;28;20224;-66
2021/05/08 04:52:18;;;;;;;1999.90;999.90;;;;;;;11.37;80.38;95767.75;5070477;28;20204;-65
2021/05/08 04:54:45;;;;;;;1999.90;999.90;;;;;;;11.50;80.09;95759.19;5069012;28;20668;-66
2021/05/08 04:57:12;;;;;;;1999.90;999.90;;;;;;;11.52;79.33;95767.44;5070078;28;20197;-66
2021/05/08 04:59:39;;;;;;;1999.90;999.90;;;;;;;11.57;80.17;95767.34;5070099;28;20196;-65
2021/05/08 05:02:06;;;;;;;1999.90;999.90;;;;;;;11.62;80.14;95769.84;5070018;28;20655;-66
2021/05/08 05:04:33;;;;;;;1999.90;999.90;;;;;;;11.65;79.00;95768.50;5070202;28;20685;-67
2021/05/08 05:07:02;;;;;;;1999.90;999.90;;;;;;;11.78;78.91;95785.16;5070018;28;20242;-65
2021/05/08 05:09:33;;;;;;;1999.90;999.90;;;;;;;11.58;77.95;95781.13;5070299;28;20618;-65
2021/05/08 05:12:00;;;;;;;1999.90;999.90;;;;;;;11.61;77.98;95804.75;5070039;28;20262;-66
2021/05/08 05:14:27;;;;;;;1999.90;999.90;;;;;;;11.64;77.74;95808.59;5070076;28;20204;-66
2021/05/08 05:16:54;;;;;;;1999.90;999.90;;;;;;;11.75;78.26;95817.78;5069956;28;20238;-66
2021/05/08 05:19:21;;;;;;;1999.90;999.90;;;;;;;11.85;77.59;95822.00;5070102;28;20200;-66
2021/05/08 05:21:48;;;;;;;1999.90;999.90;;;;;;;11.96;76.37;95837.13;5070136;28;20274;-66
2021/05/08 05:24:16;;;;;;;1999.90;999.90;;;;;;;11.81;77.17;95837.44;5070128;28;20208;-67
2021/05/08 05:26:43;;;;;;;1999.90;999.90;;;;;;;11.93;76.79;95842.16;5069842;28;20293;-67
2021/05/08 05:29:10;;;;;;;1999.90;999.90;;;;;;;11.88;76.21;95843.03;5069749;28;20564;-66
2021/05/08 05:31:37;;;;;;;1999.90;999.90;;;;;;;12.03;76.05;95841.94;5070555;28;20643;-66
2021/05/08 05:34:05;;;;;;;1999.90;999.90;;;;;;;12.13;76.62;95830.50;5069943;28;20204;-65
2021/05/08 05:36:32;;;;;;;1999.90;999.90;;;;;;;11.86;76.36;95842.53;5069840;28;20196;-66
2021/05/08 05:38:59;;;;;;;1999.90;999.90;;;;;;;11.87;75.60;95851.13;5070090;28;20207;-66
2021/05/08 05:41:27;;;;;;;1999.90;999.90;;;;;;;11.85;75.93;95851.44;5069707;28;20197;-66
2021/05/08 05:43:54;;;;;;;1999.90;999.90;;;;;;;11.93;75.15;95844.75;5069769;28;20196;-65
2021/05/08 05:46:22;;;;;;;1999.90;999.90;;;;;;;11.76;75.66;95844.56;5069746;28;20282;-66
2021/05/08 05:48:48;;;;;;;1999.90;999.90;;;;;;;11.90;76.20;95853.16;5069736;28;20667;-62
2021/05/08 05:51:15;;;;;;;1999.90;999.90;;;;;;;11.74;74.88;95865.72;5069832;28;20284;-65
2021/05/08 05:53:42;;;;;;;1999.90;999.90;;;;;;;11.88;75.20;95857.88;5069581;28;20275;-65
2021/05/08 05:56:10;;;;;;;1999.90;999.90;;;;;;;12.11;75.13;95869.09;5069469;28;20197;-65
2021/05/08 05:58:41;;;;;;;1999.90;999.90;;;;;;;12.09;74.39;95859.00;5069673;28;20679;-66
2021/05/08 06:01:08;;;;;;;1999.90;999.90;;;;;;;12.03;73.55;95868.75;5069451;28;20239;-64
2021/05/08 06:03:35;;;;;;;1999.90;999.90;;;;;;;12.12;73.32;95868.03;5069553;28;20199;-66
2021/05/08 06:06:02;;;;;;;1999.90;999.90;;;;;;;12.16;74.45;95866.38;5069299;28;20601;-67
2021/05/08 06:08:29;;;;;;;1999.90;999.90;;;;;;;12.44;72.93;95867.88;5069358;28;20200;-66
2021/05/08 06:10:56;;;;;;;1999.90;999.90;;;;;;;12.50;72.74;95871.91;5069964;28;20193;-65
2021/05/08 06:13:23;;;;;;;1999.90;999.90;;;;;;;12.48;70.51;95874.03;5070585;28;20195;-66
2021/05/08 06:15:51;;;;;;;1999.90;999.90;;;;;;;12.73;71.66;95865.63;5073670;28;20266;-66
2021/05/08 06:18:17;;;;;;;1999.90;999.90;;;;;;;13.28;69.43;95873.16;5072892;28;20693;-66
2021/05/08 06:20:44;;;;;;;1999.90;999.90;;;;;;;13.61;68.41;95879.59;5073054;28;20228;-66
2021/05/08 06:23:11;;;;;;;1999.90;999.90;;;;;;;14.20;67.26;95891.25;5072777;28;20200;-65
2021/05/08 06:25:38;;;;;;;1999.90;999.90;;;;;;;14.11;64.90;95892.31;5072880;28;20200;-66
2021/05/08 06:28:05;;;;;;;1999.90;999.90;;;;;;;13.72;66.24;95883.47;5072635;28;20224;-65
2021/05/08 06:30:32;;;;;;;1999.90;999.90;;;;;;;13.90;65.29;95896.59;5073183;28;20265;-65
2021/05/08 06:32:59;;;;;;;1999.90;999.90;;;;;;;14.45;63.89;95894.22;5072724;28;20305;-66
2021/05/08 06:35:26;;;;;;;1999.90;999.90;;;;;;;14.33;64.17;95884.34;5072842;28;20281;-66
2021/05/08 06:37:53;;;;;;;1999.90;999.90;;;;;;;14.45;63.16;95876.69;5072461;28;20283;-65
2021/05/08 06:40:20;;;;;;;1999.90;999.90;;;;;;;13.84;64.07;95889.97;5073074;28;20240;-65
2021/05/08 06:42:47;;;;;;;1999.90;999.90;;;;;;;13.72;64.41;95886.09;5072607;28;20246;-65
2021/05/08 06:45:14;;;;;;;1999.90;999.90;;;;;;;13.76;65.28;95881.00;5072529;28;20283;-65
2021/05/08 06:47:41;;;;;;;1999.90;999.90;;;;;;;13.85;65.22;95883.66;5072486;28;20311;-66
2021/05/08 06:50:11;;;;;;;1999.90;999.90;;;;;;;13.70;64.92;95877.75;5072192;28;20203;-66
2021/05/08 06:52:38;;;;;;;1999.90;999.90;;;;;;;13.28;66.97;95897.44;5072734;28;20185;-65
2021/05/08 06:55:06;;;;;;;1999.90;999.90;;;;;;;13.56;66.83;95892.00;5072248;28;20189;-66
2021/05/08 06:57:33;;;;;;;1999.90;999.90;;;;;;;13.63;65.55;95903.56;5072468;28;20192;-64
2021/05/08 07:00:00;;;;;;;1999.90;999.90;;;;;;;13.58;65.36;95900.31;5072331;28;20193;-65
2021/05/08 07:02:28;;;;;;;1999.90;999.90;;;;;;;13.78;65.03;95903.16;5072231;28;20637;-66
2021/05/08 07:04:55;;;;;;;1999.90;999.90;;;;;;;13.66;64.80;95907.41;5072104;28;20663;-65
2021/05/08 07:07:22;;;;;;;1999.90;999.90;;;;;;;13.02;65.83;95908.75;5071711;28;20236;-64
2021/05/08 07:09:49;;;;;;;1999.90;999.90;;;;;;;12.79;68.03;95905.41;5071932;28;20283;-66
2021/05/08 07:12:16;;;;;;;1999.90;999.90;;;;;;;12.64;69.03;95903.91;5072019;28;20200;-66
2021/05/08 07:14:45;;;;;;;1999.90;999.90;;;;;;;12.78;68.34;95909.06;5072053;28;20226;-66
2021/05/08 07:17:12;;;;;;;1999.90;999.90;;;;;;;12.74;68.54;95910.72;5071845;28;20216;-65
2021/05/08 07:19:39;;;;;;;1999.90;999.90;;;;;;;12.54;68.87;95909.34;5072148;28;20207;-64
2021/05/08 07:22:06;;;;;;;1999.90;999.90;;;;;;;12.90;68.67;95897.00;5071748;28;20192;-65
2021/05/08 07:24:34;;;;;;;1999.90;999.90;;;;;;;13.07;67.35;95904.19;5071999;28;20249;-66
2021/05/08 07:27:01;;;;;;;1999.90;999.90;;;;;;;13.08;66.75;95897.13;5071782;28;20907;-65
2021/05/08 07:29:28;;;;;;;1999.90;999.90;;;;;;;13.06;67.72;95894.81;5071689;28;20231;-65
2021/05/08 07:31:55;;;;;;;1999.90;999.90;;;;;;;13.47;66.20;95912.09;5071739;28;20245;-65
2021/05/08 07:34:21;;;;;;;1999.90;999.90;;;;;;;13.33;65.03;95909.59;5071717;28;20196;-65
2021/05/08 07:36:48;;;;;;;1999.90;999.90;;;;;;;13.26;65.98;95914.44;5071619;28;20203;-66
2021/05/08 07:39:15;;;;;;;1999.90;999.90;;;;;;;13.20;65.75;95913.06;5071644;28;20224;-66
2021/05/08 07:41:43;;;;;;;1999.90;999.90;;;;;;;13.27;65.56;95921.22;5071454;28;20275;-65
2021/05/08 07:44:10;;;;;;;1999.90;999.90;;;;;;;13.30;65.88;95921.38;5071423;28;20275;-65
2021/05/08 07:46:36;;;;;;;1999.90;999.90;;;;;;;13.46;66.62;95919.16;5071222;28;20288;-65
2021/05/08 07:49:04;;;;;;;1999.90;999.90;;;;;;;13.49;65.09;95912.56;5071801;28;20192;-66
2021/05/08 07:51:30;;;;;;;1999.90;999.90;;;;;;;13.97;64.83;95917.81;5071290;28;20195;-65
2021/05/08 07:53:57;;;;;;;1999.90;999.90;;;;;;;14.26;62.46;95910.16;5071355;28;20579;-66
2021/05/08 07:56:24;;;;;;;1999.90;999.90;;;;;;;14.20;62.57;95914.78;5071388;28;20192;-66
2021/05/08 07:58:52;;;;;;;1999.90;999.90;;;;;;;14.26;62.39;95919.84;5070993;28;20195;-66
2021/05/08 08:01:19;;;;;;;1999.90;999.90;;;;;;;14.29;62.25;95927.09;5070969;28;20200;-65
2021/05/08 08:03:47;;;;;;;1999.90;999.90;;;;;;;14.30;61.52;95926.00;5071043;28;20197;-66
2021/05/08 08:06:13;;;;;;;1999.90;999.90;;;;;;;13.93;62.83;95932.56;5070591;28;20232;-65
2021/05/08 08:08:40;;;;;;;1999.90;999.90;;;;;;;13.87;62.98;95938.97;5070829;28;20205;-64
2021/05/08 08:11:07;;;;;;;1999.90;999.90;;;;;;;13.91;62.81;95935.47;5070837;28;20197;-64
2021/05/08 08:13:34;;;;;;;1999.90;999.90;;;;;;;13.85;62.54;95947.09;5070939;28;20200;-65
2021/05/08 08:16:02;;;;;;;1999.90;999.90;;;;;;;13.81;63.47;95948.78;5070843;28;20247;-65
2021/05/08 08:18:29;;;;;;;1999.90;999.90;;;;;;;13.44;64.30;95944.81;5070866;28;20265;-65
2021/05/08 08:20:55;;;;;;;1999.90;999.90;;;;;;;13.46;64.40;95949.72;5070971;28;20390;-65
2021/05/08 08:23:22;;;;;;;1999.90;999.90;;;;;;;13.15;65.48;95949.72;5070525;28;20694;-65
2021/05/08 08:25:50;;;;;;;1999.90;999.90;;;;;;;13.12;65.79;95942.47;5070472;28;20753;-65
2021/05/08 08:28:17;;;;;;;1999.90;999.90;;;;;;;13.15;65.17;95945.25;5070435;28;20617;-65
2021/05/08 08:30:44;;;;;;;1999.90;999.90;;;;;;;13.17;65.77;95948.34;5070661;28;20752;-65
2021/05/08 08:33:12;;;;;;;1999.90;999.90;;;;;;;13.15;64.62;95949.72;5070467;28;20197;-65
2021/05/08 08:35:39;;;;;;;1999.90;999.90;;;;;;;13.18;65.16;95959.53;5070079;28;20239;-64
2021/05/08 08:38:06;;;;;;;1999.90;999.90;;;;;;;12.92;65.74;95954.88;5070626;28;20204;-63
2021/05/08 08:40:33;;;;;;;1999.90;999.90;;;;;;;12.97;66.21;95956.59;5070268;28;20192;-64
2021/05/08 08:43:00;;;;;;;1999.90;999.90;;;;;;;12.75;66.81;95951.41;5070636;28;20233;-65
2021/05/08 08:45:26;;;;;;;1999.90;999.90;;;;;;;12.81;67.20;95956.19;5070459;28;20254;-63
2021/05/08 08:47:54;;;;;;;1999.90;999.90;;;;;;;12.92;66.70;95954.13;5070266;28;20596;-65
2021/05/08 08:50:28;;;;;;;1999.90;999.90;;;;;;;13.19;65.87;95951.44;5070240;28;20272;-66
2021/05/08 08:52:56;;;;;;;1999.90;999.90;;;;;;;13.37;66.44;95949.69;5070390;28;20200;-65
2021/05/08 08:55:24;;;;;;;1999.90;999.90;;;;;;;13.62;64.85;95943.81;5070239;28;20201;-64
2021/05/08 08:57:53;;;;;;;1999.90;999.90;;;;;;;14.23;62.91;95947.38;5070204;28;20285;-66
2021/05/08 09:00:20;;;;;;;1999.90;999.90;;;;;;;14.57;61.71;95946.69;5070206;28;20200;-64
2021/05/08 09:02:49;;;;;;;1999.90;999.90;;;;;;;14.97;60.71;95931.59;5070350;28;20208;-64
2021/05/08 09:05:17;;;;;;;1999.90;999.90;;;;;;;15.02;58.19;95939.28;5069937;28;20212;-66
2021/05/08 09:07:45;;;;;;;1999.90;999.90;;;;;;;15.02;60.34;95929.59;5069975;28;20234;-66
2021/05/08 09:10:27;;;;;;;1999.90;999.90;;;;;;;14.87;59.23;95931.91;5070164;28;20199;-67
2021/05/08 09:12:55;;;;;;;1999.90;999.90;;;;;;;14.74;59.76;95936.25;5070008;28;20223;-66
2021/05/08 09:15:36;;;;;;;1999.90;999.90;;;;;;;15.19;58.77;95936.66;5069696;28;20672;-66
2021/05/08 09:18:03;;;;;;;1999.90;999.90;;;;;;;14.84;59.20;95937.78;5069702;28;20674;-65
2021/05/08 09:20:46;;;;;;;1999.90;999.90;;;;;;;14.98;58.83;95947.00;5070179;28;20618;-66
2021/05/08 09:23:25;;;;;;;1999.90;999.90;;;;;;;15.20;57.83;95932.94;5069966;28;20198;-67
2021/05/08 09:25:57;;;;;;;1999.90;999.90;;;;;;;15.11;58.62;95937.44;5069981;28;20200;-65
2021/05/08 09:28:25;;;;;;;1999.90;999.90;;;;;;;15.30;57.51;95927.38;5069832;28;20245;-64
2021/05/08 09:30:53;;;;;;;1999.90;999.90;;;;;;;15.61;57.13;95927.16;5069944;28;20589;-65
2021/05/08 09:33:21;;;;;;;1999.90;999.90;;;;;;;15.89;55.28;95924.88;5070003;28;20204;-65
2021/05/08 09:36:03;;;;;;;1999.90;999.90;;;;;;;15.99;55.81;95929.75;5069776;28;20200;-63
2021/05/08 09:38:32;;;;;;;1999.90;999.90;;;;;;;16.19;55.92;95925.66;5069750;28;20206;-64
2021/05/08 09:40:59;;;;;;;1999.90;999.90;;;;;;;16.05;54.80;95925.88;5069721;28;20200;-65
2021/05/08 09:43:26;;;;;;;1999.90;999.90;;;;;;;16.21;53.52;95928.72;5069689;28;20199;-64
2021/05/08 09:45:54;;;;;;;1999.90;999.90;;;;;;;16.13;54.53;95927.69;5069663;28;20196;-65
2021/05/08 09:48:27;;;;;;;1999.90;999.90;;;;;;;16.00;54.54;95933.16;5071013;28;20243;-65
2021/05/08 09:51:13;;;;;;;1999.90;999.90;;;;;;;16.19;53.76;95930.91;5073794;28;20205;-64
2021/05/08 09:53:41;;;;;;;1999.90;999.90;;;;;;;16.04;53.81;95929.56;5073738;28;20272;-65
2021/05/08 09:56:35;;;;;;;1999.90;999.90;;;;;;;15.97;55.02;95929.31;5073476;28;20200;-65
2021/05/08 09:59:23;;;;;;;1999.90;999.90;;;;;;;16.66;54.14;95921.81;5073667;28;20213;-64
2021/05/08 10:01:50;;;;;;;1999.90;999.90;;;;;;;16.83;51.43;95920.13;5064921;28;20211;-65
2021/05/08 10:04:29;;;;;;;1999.90;999.90;;;;;;;16.68;51.43;95927.50;5073576;28;20247;-64
2021/05/08 10:07:07;;;;;;;1999.90;999.90;;;;;;;16.38;51.88;95917.38;5072959;28;20239;-64
2021/05/08 10:09:36;;;;;;;1999.90;999.90;;;;;;;16.59;51.83;95920.75;5073393;28;20200;-66
2021/05/08 10:12:04;;;;;;;1999.90;999.90;;;;;;;16.93;52.19;95917.13;5073267;28;20199;-65
2021/05/08 10:14:32;;;;;;;1999.90;999.90;;;;;;;16.97;50.35;95925.88;5073173;28;20246;-66
2021/05/08 10:17:00;;;;;;;1999.90;999.90;;;;;;;16.90;50.85;95915.88;5073021;28;20307;-65
2021/05/08 10:19:30;;;;;;;1999.90;999.90;;;;;;;17.25;49.79;95911.06;5073008;28;20280;-65
2021/05/08 10:21:59;;;;;;;1999.90;999.90;;;;;;;17.20;49.61;95911.28;5073095;28;20228;-65
2021/05/08 10:24:26;;;;;;;1999.90;999.90;;;;;;;17.49;49.05;95902.47;5072758;28;20196;-62
2021/05/08 10:26:57;;;;;;;1999.90;999.90;;;;;;;17.64;48.52;95905.25;5072553;28;20251;-63
2021/05/08 10:29:26;;;;;;;1999.90;999.90;;;;;;;17.30;48.55;95902.22;5073306;28;20275;-64
2021/05/08 10:31:56;;;;;;;1999.90;999.90;;;;;;;17.18;49.56;95901.09;5072974;28;20204;-65
2021/05/08 10:34:32;;;;;;;1999.90;999.90;;;;;;;16.96;49.37;95901.47;5072541;28;20667;-65
2021/05/08 10:37:10;;;;;;;1999.90;999.90;;;;;;;16.66;49.79;95913.16;5072700;28;20207;-65
2021/05/08 10:39:55;;;;;;;1999.90;999.90;;;;;;;16.51;51.20;95916.34;5073068;28;20204;-66
2021/05/08 10:42:34;;;;;;;1999.90;999.90;;;;;;;16.10;51.10;95909.97;5071925;28;20192;-63
2021/05/08 10:45:01;;;;;;;1999.90;999.90;;;;;;;16.45;51.38;95912.34;5072585;28;20279;-64
2021/05/08 10:48:13;;;;;;;1999.90;999.90;;;;;;;16.55;49.84;95909.34;5072436;28;20618;-64
2021/05/08 10:50:48;;;;;;;1999.90;999.90;;;;;;;16.52;50.04;95904.75;4990935;28;20210;-65
2021/05/08 10:53:17;;;;;;;1999.90;999.90;;;;;;;16.84;48.80;95904.03;5057722;28;20261;-63
2021/05/08 10:55:52;;;;;;;1999.90;999.90;;;;;;;17.08;48.53;95896.28;5072253;28;20228;-62
2021/05/08 10:58:39;;;;;;;1999.90;999.90;;;;;;;17.14;48.21;95897.56;5072270;28;20655;-63
2021/05/08 11:01:10;;;;;;;1999.90;999.90;;;;;;;17.01;47.49;95898.66;5072268;28;20204;-64